Time,TemperatureF,DewpointF,PressureIn,WindDirection,WindDirectionDegrees,WindSpeedMPH,WindSpeedGustMPH,Humidity,HourlyPrecipIn,Conditions,Clouds,dailyrainin,SoftwareType,DateUTC
2013-10-17 00:12:00,43.0,41.4,30.06,SE,135,0.0,-999.0,94,-99.99,,,0.00,Acu-Link.com,2013-10-17 05:12:00,
2013-10-17 00:27:00,42.8,41.7,30.06,SSE,157,0.0,-999.0,96,-99.99,,,0.00,Acu-Link.com,2013-10-17 05:27:00,
2013-10-17 00:43:00,43.5,42.7,30.06,SSE,157,0.0,-999.0,97,-99.99,,,0.00,Acu-Link.com,2013-10-17 05:43:00,
2013-10-17 00:58:00,43.7,42.6,30.06,SSE,157,0.0,-999.0,96,-99.99,,,0.00,Acu-Link.com,2013-10-17 05:58:00,
2013-10-17 01:13:00,42.8,42.0,30.06,SE,135,0.0,-999.0,97,-99.99,,,0.00,Acu-Link.com,2013-10-17 06:13:00,
2013-10-17 01:29:00,42.6,42.1,30.06,SSE,157,0.0,-999.0,98,-99.99,,,0.00,Acu-Link.com,2013-10-17 06:29:00,
2013-10-17 01:44:00,42.4,41.9,30.06,SSW,202,0.0,-999.0,98,-99.99,,,0.00,Acu-Link.com,2013-10-17 06:44:00,
2013-10-17 02:00:00,42.6,42.1,30.06,SSE,157,0.0,-999.0,98,-99.99,,,0.00,Acu-Link.com,2013-10-17 07:00:00,
2013-10-17 02:16:00,42.3,41.7,30.06,ESE,112,0.0,-999.0,98,-99.99,,,0.00,Acu-Link.com,2013-10-17 07:16:00,
2013-10-17 02:31:00,41.9,41.4,30.06,ENE,67,0.0,-999.0,98,-99.99,,,0.00,Acu-Link.com,2013-10-17 07:31:00,
2013-10-17 02:47:00,41.5,41.0,30.06,ENE,67,0.0,-999.0,98,-99.99,,,0.00,Acu-Link.com,2013-10-17 07:47:00,
2013-10-17 03:03:00,41.0,40.5,30.06,ENE,67,0.0,-999.0,98,-99.99,,,0.00,Acu-Link.com,2013-10-17 08:03:00,
2013-10-17 03:19:00,40.6,40.1,30.06,ESE,112,0.0,-999.0,98,-99.99,,,0.00,Acu-Link.com,2013-10-17 08:19:00,
2013-10-17 03:34:00,40.6,40.1,30.05,ESE,112,0.0,-999.0,98,-99.99,,,0.00,Acu-Link.com,2013-10-17 08:34:00,
2013-10-17 03:50:00,40.6,40.1,30.05,SSE,157,0.0,-999.0,98,-99.99,,,0.00,Acu-Link.com,2013-10-17 08:50:00,
2013-10-17 04:05:00,40.6,40.1,30.05,SSE,157,0.0,-999.0,98,-99.99,,,0.00,Acu-Link.com,2013-10-17 09:05:00,
2013-10-17 04:20:00,41.9,41.4,30.04,South,180,0.0,-999.0,98,-99.99,,,0.00,Acu-Link.com,2013-10-17 09:20:00,
2013-10-17 04:35:00,37.2,36.7,30.05,West,270,0.0,-999.0,98,-99.99,,,0.00,Acu-Link.com,2013-10-17 09:35:00,
2013-10-17 04:51:00,37.4,36.9,30.05,WNW,292,0.0,-999.0,98,-99.99,,,0.00,Acu-Link.com,2013-10-17 09:51:00,
2013-10-17 05:06:00,37.4,36.9,30.04,NW,315,0.0,-999.0,98,-99.99,,,0.00,Acu-Link.com,2013-10-17 10:06:00,
2013-10-17 05:21:00,37.8,37.2,30.04,West,270,0.0,-999.0,98,-99.99,,,0.00,Acu-Link.com,2013-10-17 10:21:00,
2013-10-17 05:36:00,37.8,37.2,30.04,West,270,0.0,-999.0,98,-99.99,,,0.00,Acu-Link.com,2013-10-17 10:36:00,
2013-10-17 05:51:00,38.3,37.8,30.04,West,270,0.0,-999.0,98,-99.99,,,0.00,Acu-Link.com,2013-10-17 10:51:00,
2013-10-17 06:07:00,39.0,38.5,30.04,West,270,0.0,-999.0,98,-99.99,,,0.00,Acu-Link.com,2013-10-17 11:07:00,
2013-10-17 06:22:00,39.4,38.9,30.04,West,270,0.0,-999.0,98,-99.99,,,0.00,Acu-Link.com,2013-10-17 11:22:00,
2013-10-17 06:37:00,39.4,38.9,30.04,West,270,0.0,-999.0,98,-99.99,,,0.00,Acu-Link.com,2013-10-17 11:37:00,
2013-10-17 06:52:00,39.0,38.5,30.04,West,270,0.0,-999.0,98,-99.99,,,0.00,Acu-Link.com,2013-10-17 11:52:00,
2013-10-17 07:07:00,39.0,38.5,30.04,SW,225,0.0,-999.0,98,-99.99,,,0.00,Acu-Link.com,2013-10-17 12:07:00,
2013-10-17 07:23:00,39.2,38.7,30.04,West,270,0.0,-999.0,98,-99.99,,,0.00,Acu-Link.com,2013-10-17 12:23:00,
2013-10-17 07:38:00,39.6,39.0,30.04,SSW,202,0.0,-999.0,98,-99.99,,,0.00,Acu-Link.com,2013-10-17 12:38:00,
2013-10-17 07:53:00,39.6,39.0,30.04,WSW,247,0.0,-999.0,98,-99.99,,,0.00,Acu-Link.com,2013-10-17 12:53:00,
2013-10-17 08:08:00,40.8,40.3,30.04,West,270,0.0,-999.0,98,-99.99,,,0.00,Acu-Link.com,2013-10-17 13:08:00,
2013-10-17 08:24:00,42.8,40.6,30.05,West,270,0.0,-999.0,92,-99.99,,,0.00,Acu-Link.com,2013-10-17 13:24:00,
2013-10-17 08:39:00,44.8,41.4,30.05,SW,225,0.0,-999.0,88,-99.99,,,0.00,Acu-Link.com,2013-10-17 13:39:00,
2013-10-17 08:54:00,44.6,41.3,30.05,West,270,0.0,-999.0,88,-99.99,,,0.00,Acu-Link.com,2013-10-17 13:54:00,
2013-10-17 09:09:00,45.9,41.9,30.06,WNW,292,4.7,-999.0,86,-99.99,,,0.00,Acu-Link.com,2013-10-17 14:09:00,
2013-10-17 09:24:00,47.1,42.2,30.06,West,270,5.1,-999.0,83,-99.99,,,0.00,Acu-Link.com,2013-10-17 14:24:00,
2013-10-17 09:40:00,48.9,43.0,30.06,West,270,6.3,-999.0,80,-99.99,,,0.00,Acu-Link.com,2013-10-17 14:40:00,
2013-10-17 09:55:00,50.0,43.7,30.07,West,270,5.1,-999.0,79,-99.99,,,0.00,Acu-Link.com,2013-10-17 14:55:00,
2013-10-17 10:10:00,51.4,44.1,30.07,West,270,4.3,-999.0,76,-99.99,,,0.00,Acu-Link.com,2013-10-17 15:10:00,
2013-10-17 10:25:00,53.6,44.8,30.07,SW,225,0.0,-999.0,72,-99.99,,,0.00,Acu-Link.com,2013-10-17 15:25:00,
2013-10-17 10:40:00,55.4,45.8,30.06,WSW,247,0.0,-999.0,70,-99.99,,,0.00,Acu-Link.com,2013-10-17 15:40:00,
2013-10-17 10:56:00,56.7,45.8,30.06,WSW,247,0.0,-999.0,67,-99.99,,,0.00,Acu-Link.com,2013-10-17 15:56:00,
2013-10-17 11:11:00,58.3,47.4,30.06,WNW,292,0.0,-999.0,67,-99.99,,,0.00,Acu-Link.com,2013-10-17 16:11:00,
2013-10-17 11:26:00,59.0,47.3,30.06,West,270,0.0,-999.0,65,-99.99,,,0.00,Acu-Link.com,2013-10-17 16:26:00,
2013-10-17 11:41:00,61.2,48.0,30.05,West,270,0.0,-999.0,62,-99.99,,,0.00,Acu-Link.com,2013-10-17 16:41:00,
2013-10-17 11:56:00,62.6,49.0,30.06,West,270,0.0,-999.0,61,-99.99,,,0.00,Acu-Link.com,2013-10-17 16:56:00,
2013-10-17 12:12:00,64.0,48.5,30.05,WNW,292,0.0,-999.0,57,-99.99,,,0.00,Acu-Link.com,2013-10-17 17:12:00,
2013-10-17 12:27:00,64.9,48.9,30.05,NW,315,4.7,-999.0,56,-99.99,,,0.00,Acu-Link.com,2013-10-17 17:27:00,
2013-10-17 12:42:00,67.1,48.9,30.03,NW,315,0.0,-999.0,52,-99.99,,,0.00,Acu-Link.com,2013-10-17 17:42:00,
2013-10-17 12:57:00,68.2,47.7,30.02,South,180,0.0,-999.0,48,-99.99,,,0.00,Acu-Link.com,2013-10-17 17:57:00,
2013-10-17 13:13:00,67.3,45.8,30.02,West,270,0.0,-999.0,46,-99.99,,,0.00,Acu-Link.com,2013-10-17 18:13:00,
2013-10-17 13:28:00,70.5,46.9,30.00,ESE,112,0.0,-999.0,43,-99.99,,,0.00,Acu-Link.com,2013-10-17 18:28:00,
2013-10-17 13:43:00,68.9,45.5,30.00,West,270,0.0,-999.0,43,-99.99,,,0.00,Acu-Link.com,2013-10-17 18:43:00,
2013-10-17 13:58:00,70.7,45.2,29.99,NNE,22,2.2,-999.0,40,-99.99,,,0.00,Acu-Link.com,2013-10-17 18:58:00,
2013-10-17 14:13:00,72.0,39.7,29.98,SE,135,0.0,-999.0,31,-99.99,,,0.00,Acu-Link.com,2013-10-17 19:13:00,
2013-10-17 14:29:00,72.5,41.7,29.97,North,0,3.1,-999.0,33,-99.99,,,0.00,Acu-Link.com,2013-10-17 19:29:00,
2013-10-17 14:44:00,73.4,42.5,29.96,SE,135,0.0,-999.0,33,-99.99,,,0.00,Acu-Link.com,2013-10-17 19:44:00,
2013-10-17 14:59:00,74.5,44.3,29.96,ESE,112,4.7,-999.0,34,-99.99,,,0.00,Acu-Link.com,2013-10-17 19:59:00,
2013-10-17 15:14:00,73.8,43.6,29.96,SSE,157,0.0,-999.0,34,-99.99,,,0.00,Acu-Link.com,2013-10-17 20:14:00,
2013-10-17 15:29:00,75.0,43.1,29.94,SSE,157,0.0,-999.0,32,-99.99,,,0.00,Acu-Link.com,2013-10-17 20:29:00,
2013-10-17 15:45:00,74.1,44.7,29.94,NW,315,3.1,-999.0,35,-99.99,,,0.00,Acu-Link.com,2013-10-17 20:45:00,
2013-10-17 16:00:00,75.2,46.4,29.94,ESE,112,0.0,-999.0,36,-99.99,,,0.00,Acu-Link.com,2013-10-17 21:00:00,
2013-10-17 16:15:00,75.4,47.3,29.93,SSW,202,0.0,-999.0,37,-99.99,,,0.00,Acu-Link.com,2013-10-17 21:15:00,
2013-10-17 16:30:00,74.3,47.7,29.92,West,270,0.0,-999.0,39,-99.99,,,0.00,Acu-Link.com,2013-10-17 21:30:00,
2013-10-17 16:45:00,74.3,49.1,29.92,West,270,0.0,-999.0,41,-99.99,,,0.00,Acu-Link.com,2013-10-17 21:45:00,
2013-10-17 17:01:00,75.0,49.7,29.92,South,180,0.0,-999.0,41,-99.99,,,0.00,Acu-Link.com,2013-10-17 22:01:00,
2013-10-17 17:16:00,74.1,48.9,29.91,SSW,202,0.0,-999.0,41,-99.99,,,0.00,Acu-Link.com,2013-10-17 22:16:00,
2013-10-17 17:31:00,74.8,50.2,29.91,SE,135,0.0,-999.0,42,-99.99,,,0.00,Acu-Link.com,2013-10-17 22:31:00,
2013-10-17 17:46:00,73.9,50.0,29.90,South,180,5.8,-999.0,43,-99.99,,,0.00,Acu-Link.com,2013-10-17 22:46:00,
2013-10-17 18:02:00,74.1,50.2,29.90,SSE,157,0.0,-999.0,43,-99.99,,,0.00,Acu-Link.com,2013-10-17 23:02:00,
2013-10-17 18:17:00,74.1,50.8,29.90,SSE,157,7.4,-999.0,44,-99.99,,,0.00,Acu-Link.com,2013-10-17 23:17:00,
2013-10-17 18:32:00,72.5,51.1,29.90,South,180,0.0,-999.0,47,-99.99,,,0.00,Acu-Link.com,2013-10-17 23:32:00,
2013-10-17 18:47:00,70.9,51.3,29.90,South,180,0.0,-999.0,50,-99.99,,,0.00,Acu-Link.com,2013-10-17 23:47:00,
2013-10-17 19:02:00,70.2,51.2,29.90,SSE,157,0.0,-999.0,51,-99.99,,,0.00,Acu-Link.com,2013-10-18 00:02:00,
2013-10-17 19:18:00,69.1,50.7,29.90,SE,135,0.0,-999.0,52,-99.99,,,0.00,Acu-Link.com,2013-10-18 00:18:00,
2013-10-17 19:33:00,68.2,50.4,29.90,SSE,157,0.0,-999.0,53,-99.99,,,0.00,Acu-Link.com,2013-10-18 00:33:00,
2013-10-17 19:48:00,67.1,49.9,29.91,SSE,157,0.0,-999.0,54,-99.99,,,0.00,Acu-Link.com,2013-10-18 00:48:00,
2013-10-17 20:03:00,66.4,50.2,29.91,South,180,4.3,-999.0,56,-99.99,,,0.00,Acu-Link.com,2013-10-18 01:03:00,
2013-10-17 20:18:00,65.5,50.3,29.92,SSE,157,0.0,-999.0,58,-99.99,,,0.00,Acu-Link.com,2013-10-18 01:18:00,
2013-10-17 20:34:00,64.4,49.8,29.93,South,180,0.0,-999.0,59,-99.99,,,0.00,Acu-Link.com,2013-10-18 01:34:00,
2013-10-17 20:49:00,64.2,50.0,29.92,SSE,157,0.0,-999.0,60,-99.99,,,0.00,Acu-Link.com,2013-10-18 01:49:00,
2013-10-17 21:04:00,64.0,49.9,29.93,SSE,157,0.0,-999.0,60,-99.99,,,0.00,Acu-Link.com,2013-10-18 02:04:00,
2013-10-17 21:19:00,64.0,50.3,29.94,SSE,157,0.0,-999.0,61,-99.99,,,0.00,Acu-Link.com,2013-10-18 02:19:00,
2013-10-17 21:34:00,63.9,50.6,29.94,ESE,112,4.3,-999.0,62,-99.99,,,0.00,Acu-Link.com,2013-10-18 02:34:00,
2013-10-17 21:50:00,63.3,50.5,29.94,South,180,4.3,-999.0,63,-99.99,,,0.00,Acu-Link.com,2013-10-18 02:50:00,
2013-10-17 22:05:00,63.1,50.8,29.94,SSE,157,6.7,-999.0,64,-99.99,,,0.00,Acu-Link.com,2013-10-18 03:05:00,
2013-10-17 22:20:00,62.6,50.2,29.94,South,180,6.7,-999.0,64,-99.99,,,0.00,Acu-Link.com,2013-10-18 03:20:00,
2013-10-17 22:35:00,61.7,50.2,29.94,SSE,157,6.3,-999.0,66,-99.99,,,0.00,Acu-Link.com,2013-10-18 03:35:00,
2013-10-17 22:51:00,61.0,49.9,29.94,South,180,5.1,-999.0,67,-99.99,,,0.00,Acu-Link.com,2013-10-18 03:51:00,
2013-10-17 23:06:00,59.9,49.3,29.95,SE,135,4.7,-999.0,68,-99.99,,,0.00,Acu-Link.com,2013-10-18 04:06:00,
2013-10-17 23:21:00,59.7,49.5,29.95,SE,135,5.1,-999.0,69,-99.99,,,0.00,Acu-Link.com,2013-10-18 04:21:00,
2013-10-17 23:36:00,60.6,49.2,29.95,SE,135,9.4,-999.0,66,-99.99,,,0.00,Acu-Link.com,2013-10-18 04:36:00,
2013-10-17 23:51:00,60.8,48.5,29.95,SSE,157,6.3,-999.0,64,-99.99,,,0.00,Acu-Link.com,2013-10-18 04:51:00,